East Taunton, Massachusetts
Current Conditions -  °F | °C
As of 3:52 AM on Wednesday 26 Nov 2014 (Local Time) from KTAN Reporting Station
Broken Clouds Broken Clouds  
Wind Chill: 42°   Ceiling: 12000
Heat Index: 42°   Visibility: 10mi
Dew Point: 38°   Wind: 0mph
Humidity: 85%   Direction: NA
Pressure: 30.19"   Gusts: NA
Location:  41.88°N, 71.03°W
Report Text: KTAN 260852Z AUTO 00000KT 10SM BKN120 06/03 A3019 RMK AO2 SLP222 T00560033 52017
Loading
Personal Weather Stations






























Interactive Weather Map New forecast layout! Learn more

10-Day Weather Forecast

Advertisements
Track Severe Weather on mobile